Shenandoah National Park, Virginia
Current Conditions -  °F | °C
As of 6:55 PM on Friday 24 Oct 2014 (Local Time) from KLUA Reporting Station
Clear Clear  
Wind Chill: 55°   Ceiling: Unl
Heat Index: 55°   Visibility: 10mi
Dew Point: 37°   Wind: 0mph
Humidity: 51%   Direction: NA
Pressure: 29.96"   Gusts: NA
Location:  38.6496°N, 78.431°W
Report Text: KLUA 242255Z AUTO 00000KT 10SM CLR 13/03 A2996 RMK AO2
Loading
Personal Weather Stations






























Interactive Weather Map
Tropical Storm Tracking
New forecast layout! Learn more

10-Day Weather Forecast

Advertisements
Track Severe Weather on mobile